createdAt,value
2023-08-11T00:00:09.161Z,101402.19
2023-08-11T00:02:36.935Z,101399.91
2023-08-11T00:05:05.150Z,101401.97
2023-08-11T00:07:32.471Z,101401.69
2023-08-11T00:09:58.902Z,101401.53
2023-08-11T00:12:25.352Z,101408.06
2023-08-11T00:14:51.805Z,101403.84
2023-08-11T00:17:18.251Z,101404.28
2023-08-11T00:19:44.673Z,101399.41
2023-08-11T00:22:12.467Z,101404.94
2023-08-11T00:24:38.906Z,101405.91
2023-08-11T00:27:05.789Z,101417.44
2023-08-11T00:29:32.542Z,101415.97
2023-08-11T00:31:58.994Z,101412.56
2023-08-11T00:34:25.509Z,101415.44
2023-08-11T00:36:52.140Z,101411.75
2023-08-11T00:39:19.899Z,101418.19
2023-08-11T00:41:46.325Z,101404.56
2023-08-11T00:44:13.060Z,101414.56
2023-08-11T00:46:40.244Z,101407.28
2023-08-11T00:49:06.682Z,101412.91
2023-08-11T00:51:33.170Z,101408.00
2023-08-11T00:53:59.991Z,101404.78
2023-08-11T00:56:28.096Z,101409.00
2023-08-11T00:58:55.736Z,101404.66
2023-08-11T01:01:22.292Z,101412.63
2023-08-11T01:03:48.849Z,101400.97
2023-08-11T01:06:24.288Z,101408.13
2023-08-11T01:08:56.990Z,101401.13
2023-08-11T01:11:33.921Z,101399.50
2023-08-11T01:14:04.819Z,101395.91
2023-08-11T01:16:33.850Z,101400.72
2023-08-11T01:19:01.167Z,101394.84
2023-08-11T01:21:29.030Z,101386.44
2023-08-11T01:23:57.463Z,101395.78
2023-08-11T01:26:24.020Z,101387.78
2023-08-11T01:28:53.649Z,101391.72
2023-08-11T01:31:20.245Z,101392.47
2023-08-11T01:33:46.689Z,101391.84
2023-08-11T01:36:13.148Z,101392.41
2023-08-11T01:38:39.784Z,101391.13
2023-08-11T01:41:07.572Z,101389.25
2023-08-11T01:43:35.501Z,101392.88
2023-08-11T01:46:03.211Z,101381.41
2023-08-11T01:48:31.290Z,101385.13
2023-08-11T01:50:57.869Z,101387.22
2023-08-11T01:53:24.600Z,101380.81
2023-08-11T01:55:51.680Z,101377.56
2023-08-11T01:58:19.781Z,101379.94
2023-08-11T02:00:46.248Z,101380.34
2023-08-11T02:03:12.749Z,101383.91
2023-08-11T02:05:39.394Z,101378.72
2023-08-11T02:08:06.752Z,101381.28
2023-08-11T02:10:33.201Z,101385.50
2023-08-11T02:12:59.662Z,101377.53
2023-08-11T02:15:28.270Z,101378.94
2023-08-11T02:17:54.819Z,101372.72
2023-08-11T02:20:21.371Z,101372.59
2023-08-11T02:22:48.430Z,101376.22
2023-08-11T02:25:15.202Z,101371.44
2023-08-11T02:27:41.814Z,101366.13
2023-08-11T02:30:09.424Z,101365.88
2023-08-11T02:32:37.697Z,101362.41
2023-08-11T02:35:05.397Z,101359.88
2023-08-11T02:37:31.916Z,101353.81
2023-08-11T02:39:58.371Z,101355.44
2023-08-11T02:42:24.794Z,101352.75
2023-08-11T02:44:51.450Z,101353.63
2023-08-11T02:47:18.085Z,101354.81
2023-08-11T02:49:45.840Z,101352.66
2023-08-11T02:52:13.293Z,101354.13
2023-08-11T02:54:39.753Z,101353.31
2023-08-11T02:57:06.186Z,101351.69
2023-08-11T02:59:32.652Z,101358.72
2023-08-11T03:01:59.094Z,101354.03
2023-08-11T03:04:25.524Z,101355.38
2023-08-11T03:06:53.309Z,101350.50
2023-08-11T03:09:19.745Z,101348.50
2023-08-11T03:11:46.179Z,101347.59
2023-08-11T03:14:12.649Z,101350.22
2023-08-11T03:16:39.187Z,101353.22
2023-08-11T03:19:05.679Z,101356.72
2023-08-11T03:21:32.165Z,101357.22
2023-08-11T03:23:59.919Z,101346.91
2023-08-11T03:26:26.375Z,101349.19
2023-08-11T03:28:52.906Z,101351.34
2023-08-11T03:31:19.346Z,101352.91
2023-08-11T03:33:45.777Z,101344.88
2023-08-11T03:36:12.322Z,101353.28
2023-08-11T03:38:38.754Z,101355.72
2023-08-11T03:41:06.525Z,101357.50
2023-08-11T03:43:33.019Z,101365.16
2023-08-11T03:45:59.469Z,101361.34
2023-08-11T03:48:25.923Z,101354.84
2023-08-11T03:50:52.575Z,101361.19
2023-08-11T03:53:19.028Z,101359.81
2023-08-11T03:55:45.544Z,101360.56
2023-08-11T03:58:13.652Z,101354.47
2023-08-11T04:00:40.256Z,101356.78
2023-08-11T04:03:06.836Z,101362.91
2023-08-11T04:05:33.550Z,101358.84
2023-08-11T04:08:00.015Z,101360.03
2023-08-11T04:10:26.502Z,101358.72
2023-08-11T04:12:53.000Z,101364.28
2023-08-11T04:15:21.918Z,101362.84
2023-08-11T04:17:48.466Z,101370.09
2023-08-11T04:20:15.074Z,101359.81
2023-08-11T04:22:41.844Z,101363.31
2023-08-11T04:25:09.439Z,101359.38
2023-08-11T04:27:36.267Z,101364.56
2023-08-11T04:30:02.858Z,101366.94
2023-08-11T04:32:30.668Z,101367.22
2023-08-11T04:34:57.144Z,101367.56
2023-08-11T04:37:23.659Z,101362.75
2023-08-11T04:39:50.299Z,101366.22
2023-08-11T04:42:16.774Z,101362.50
2023-08-11T04:44:43.686Z,101365.50
2023-08-11T04:47:10.585Z,101364.34
2023-08-11T04:49:38.384Z,101362.75
2023-08-11T04:52:04.989Z,101366.13
2023-08-11T04:54:31.453Z,101372.78
2023-08-11T04:56:58.090Z,101368.69
2023-08-11T04:59:24.534Z,101377.25
2023-08-11T05:01:50.980Z,101368.78
2023-08-11T05:04:17.947Z,101366.06
2023-08-11T05:06:45.878Z,101371.34
2023-08-11T05:09:12.307Z,101365.09
2023-08-11T05:11:38.788Z,101363.56
2023-08-11T05:14:05.269Z,101371.28
2023-08-11T05:16:31.764Z,101366.31
2023-08-11T05:18:58.248Z,101367.56
2023-08-11T05:21:25.588Z,101378.72
2023-08-11T05:23:53.362Z,101379.06
2023-08-11T05:26:19.832Z,101383.91
2023-08-11T05:28:46.274Z,101384.50
2023-08-11T05:31:12.767Z,101379.16
2023-08-11T05:33:39.226Z,101376.06
2023-08-11T05:36:05.947Z,101375.59
2023-08-11T05:38:32.429Z,101385.75
2023-08-11T05:41:00.233Z,101377.25
2023-08-11T05:43:26.697Z,101375.53
2023-08-11T05:45:53.182Z,101368.88
2023-08-11T05:48:19.667Z,101371.19
2023-08-11T05:50:46.268Z,101370.66
2023-08-11T05:53:12.860Z,101371.97
2023-08-11T05:55:39.622Z,101375.47
2023-08-11T05:58:07.420Z,101377.72
2023-08-11T06:00:34.015Z,101377.47
2023-08-11T06:03:00.757Z,101379.59
2023-08-11T06:05:27.407Z,101374.34
2023-08-11T06:08:05.312Z,101374.09
2023-08-11T06:10:33.603Z,101383.56
2023-08-11T06:13:00.152Z,101377.13
2023-08-11T06:15:28.363Z,101375.31
2023-08-11T06:17:54.857Z,101379.44
2023-08-11T06:20:34.463Z,101382.06
2023-08-11T06:23:07.231Z,101381.34
2023-08-11T06:25:33.683Z,101371.75
2023-08-11T06:28:00.118Z,101371.72
2023-08-11T06:30:28.143Z,101382.38
2023-08-11T06:32:54.672Z,101376.75
2023-08-11T06:35:21.507Z,101363.84
2023-08-11T06:37:48.166Z,101365.84
2023-08-11T06:40:14.786Z,101371.34
2023-08-11T06:42:41.262Z,101379.41
2023-08-11T06:45:08.626Z,101378.44
2023-08-11T06:47:36.634Z,101369.28
2023-08-11T06:50:03.692Z,101373.13
2023-08-11T06:52:30.376Z,101386.16
2023-08-11T06:54:56.915Z,101382.75
2023-08-11T06:57:24.102Z,101380.38
2023-08-11T06:59:50.694Z,101378.75
2023-08-11T07:02:17.253Z,101379.19
2023-08-11T07:04:45.370Z,101382.63
2023-08-11T07:07:11.984Z,101383.94
2023-08-11T07:09:38.436Z,101385.69
2023-08-11T07:12:05.510Z,101392.50
2023-08-11T07:14:32.004Z,101395.53
2023-08-11T07:16:58.488Z,101388.16
2023-08-11T07:19:25.044Z,101390.97
2023-08-11T07:21:52.977Z,101399.28
2023-08-11T07:24:19.452Z,101394.97
2023-08-11T07:26:45.897Z,101383.25
2023-08-11T07:29:12.365Z,101385.97
2023-08-11T07:31:38.817Z,101388.88
2023-08-11T07:34:05.240Z,101396.28
2023-08-11T07:36:31.724Z,101387.41
2023-08-11T07:39:12.781Z,101396.19
2023-08-11T07:41:45.990Z,101388.91
2023-08-11T07:44:12.463Z,101389.28
2023-08-11T07:46:38.953Z,101389.19
2023-08-11T07:49:05.680Z,101392.75
2023-08-11T07:51:32.150Z,101385.34
2023-08-11T07:54:00.074Z,101391.03
2023-08-11T07:56:26.675Z,101397.84
2023-08-11T07:58:53.124Z,101391.16
2023-08-11T08:01:19.715Z,101393.97
2023-08-11T08:03:46.311Z,101393.53
2023-08-11T08:06:12.898Z,101399.13
2023-08-11T08:08:39.338Z,101396.47
2023-08-11T08:11:07.290Z,101399.88
2023-08-11T08:13:33.727Z,101393.41
2023-08-11T08:16:00.243Z,101392.22
2023-08-11T08:18:26.887Z,101390.88
2023-08-11T08:20:53.436Z,101400.66
2023-08-11T08:23:20.182Z,101391.94
2023-08-11T08:25:46.663Z,101386.63
2023-08-11T08:28:15.041Z,101400.66
2023-08-11T08:30:41.494Z,101391.69
2023-08-11T08:33:07.995Z,101387.38
2023-08-11T08:35:34.609Z,101383.72
2023-08-11T08:38:01.071Z,101396.75
2023-08-11T08:40:28.828Z,101389.63
2023-08-11T08:42:55.739Z,101393.38
2023-08-11T08:45:26.652Z,101389.69
2023-08-11T08:47:54.528Z,101390.66
2023-08-11T08:50:22.788Z,101384.56
2023-08-11T08:52:49.852Z,101373.38
2023-08-11T08:55:17.028Z,101376.94
2023-08-11T08:57:44.055Z,101373.81
2023-08-11T09:00:11.430Z,101380.28
2023-08-11T09:02:39.862Z,101384.38
2023-08-11T09:05:07.786Z,101371.56
2023-08-11T09:07:34.219Z,101365.06
2023-08-11T09:10:01.662Z,101364.50
2023-08-11T09:12:28.130Z,101366.53
2023-08-11T09:14:54.668Z,101369.44
2023-08-11T09:17:21.645Z,101372.28
2023-08-11T09:19:51.306Z,101371.41
2023-08-11T09:22:24.295Z,101364.09
2023-08-11T09:24:50.962Z,101366.38
2023-08-11T09:27:17.425Z,101365.03
2023-08-11T09:29:43.906Z,101364.66
2023-08-11T09:32:10.668Z,101372.16
2023-08-11T09:34:39.560Z,101359.50
2023-08-11T09:37:07.414Z,101361.94
2023-08-11T09:39:33.867Z,101353.81
2023-08-11T09:42:00.339Z,101351.72
2023-08-11T09:44:26.826Z,101360.53
2023-08-11T09:46:54.707Z,101356.50
2023-08-11T09:49:21.427Z,101355.34
2023-08-11T09:51:50.085Z,101355.59
2023-08-11T09:54:19.265Z,101353.94
2023-08-11T09:56:45.862Z,101354.22
2023-08-11T09:59:14.968Z,101355.63
2023-08-11T10:01:43.970Z,101356.00
2023-08-11T10:04:15.680Z,101348.44
2023-08-11T10:06:47.550Z,101344.13
2023-08-11T10:09:15.645Z,101360.28
2023-08-11T10:11:45.224Z,101350.94
2023-08-11T10:14:17.864Z,101354.88
2023-08-11T10:16:45.895Z,101355.06
2023-08-11T10:19:13.557Z,101353.84
2023-08-11T10:21:40.582Z,101357.94
2023-08-11T10:24:08.295Z,101359.69
2023-08-11T10:26:35.049Z,101350.63
2023-08-11T10:29:04.465Z,101347.97
2023-08-11T10:31:31.689Z,101350.72
2023-08-11T10:33:58.363Z,101341.81
2023-08-11T10:36:25.134Z,101336.19
2023-08-11T10:39:02.035Z,101348.53
2023-08-11T10:41:29.095Z,101353.50
2023-08-11T10:43:56.733Z,101353.75
2023-08-11T10:46:26.114Z,101343.16
2023-08-11T10:48:53.675Z,101333.25
2023-08-11T10:51:32.073Z,101335.16
2023-08-11T10:54:02.373Z,101338.59
2023-08-11T10:56:32.150Z,101343.34
2023-08-11T10:59:08.346Z,101331.09
2023-08-11T11:01:37.905Z,101333.03
2023-08-11T11:04:05.564Z,101343.00
2023-08-11T11:06:32.249Z,101337.72
2023-08-11T11:08:58.692Z,101330.66
2023-08-11T11:11:25.471Z,101331.72
2023-08-11T11:13:52.676Z,101326.28
2023-08-11T11:16:20.349Z,101325.13
2023-08-11T11:18:48.595Z,101319.25
2023-08-11T11:21:15.395Z,101307.91
2023-08-11T11:23:44.797Z,101313.09
2023-08-11T11:26:11.278Z,101310.38
2023-08-11T11:28:37.960Z,101311.47
2023-08-11T11:33:31.375Z,101301.28
2023-08-11T11:35:59.456Z,101304.81
2023-08-11T11:38:25.945Z,101306.28
2023-08-11T11:40:52.395Z,101308.59
2023-08-11T11:43:18.916Z,101308.44
2023-08-11T11:45:46.323Z,101295.41
2023-08-11T11:48:13.180Z,101297.50
2023-08-11T11:50:40.242Z,101295.72
2023-08-11T11:53:08.526Z,101291.13
2023-08-11T11:55:43.603Z,101291.56
2023-08-11T11:58:10.099Z,101293.94
2023-08-11T12:00:36.540Z,101283.38
2023-08-11T12:03:04.084Z,101274.44
2023-08-11T12:05:31.169Z,101281.56
2023-08-11T12:07:57.652Z,101276.22
2023-08-11T12:10:32.470Z,101264.00
2023-08-11T12:12:59.670Z,101280.19
2023-08-11T12:15:26.976Z,101288.50
2023-08-11T12:17:53.746Z,101291.00
2023-08-11T12:20:22.186Z,101283.59
2023-08-11T12:22:48.653Z,101279.53
2023-08-11T12:25:15.204Z,101277.56
2023-08-11T12:27:43.068Z,101280.00
2023-08-11T12:30:10.433Z,101278.53
2023-08-11T12:32:37.170Z,101277.56
2023-08-11T12:35:04.098Z,101276.59
2023-08-11T12:37:30.530Z,101277.13
2023-08-11T12:39:56.996Z,101271.84
2023-08-11T12:42:23.542Z,101261.69
2023-08-11T12:44:51.322Z,101253.50
2023-08-11T12:47:17.784Z,101255.31
2023-08-11T12:49:44.230Z,101251.28
2023-08-11T12:52:10.844Z,101248.41
2023-08-11T12:54:37.656Z,101255.22
2023-08-11T12:57:04.690Z,101250.78
2023-08-11T12:59:31.852Z,101255.31
2023-08-11T13:01:59.952Z,101256.03
2023-08-11T13:04:26.388Z,101250.22
2023-08-11T13:06:52.864Z,101253.13
2023-08-11T13:09:19.322Z,101255.31
2023-08-11T13:11:45.775Z,101242.81
2023-08-11T13:14:12.219Z,101242.25
2023-08-11T13:16:38.719Z,101237.88
2023-08-11T13:19:06.805Z,101239.47
2023-08-11T13:21:33.614Z,101241.03
2023-08-11T13:24:00.876Z,101236.56
2023-08-11T13:26:27.584Z,101235.75
2023-08-11T13:28:54.143Z,101229.94
2023-08-11T13:31:20.658Z,101225.94
2023-08-11T13:33:47.123Z,101226.00
2023-08-11T13:36:14.918Z,101225.97
2023-08-11T13:38:41.721Z,101217.75
2023-08-11T13:41:08.459Z,101219.34
2023-08-11T13:43:35.758Z,101216.63
2023-08-11T13:46:02.421Z,101212.25
2023-08-11T13:48:30.822Z,101217.34
2023-08-11T13:50:57.955Z,101212.56
2023-08-11T13:53:25.790Z,101203.13
2023-08-11T13:55:52.239Z,101214.56
2023-08-11T13:58:18.729Z,101206.44
2023-08-11T14:00:45.396Z,101204.72
2023-08-11T14:03:11.921Z,101212.91
2023-08-11T14:05:38.441Z,101203.16
2023-08-11T14:08:05.044Z,101208.09
2023-08-11T14:10:32.822Z,101206.19
2023-08-11T14:12:59.274Z,101193.13
2023-08-11T14:15:27.042Z,101195.06
2023-08-11T14:17:53.636Z,101200.03
2023-08-11T14:20:20.179Z,101202.47
2023-08-11T14:22:46.628Z,101195.13
2023-08-11T14:25:13.096Z,101203.59
2023-08-11T14:27:40.895Z,101202.81
2023-08-11T14:30:08.744Z,101188.16
2023-08-11T14:32:35.485Z,101181.22
2023-08-11T14:35:02.104Z,101188.63
2023-08-11T14:37:28.596Z,101171.47
2023-08-11T14:39:55.024Z,101172.78
2023-08-11T14:42:21.652Z,101175.19
2023-08-11T14:44:49.802Z,101164.19
2023-08-11T14:47:16.319Z,101167.09
2023-08-11T14:49:44.271Z,101170.25
2023-08-11T14:52:11.302Z,101162.09
2023-08-11T14:54:38.476Z,101158.94
2023-08-11T14:57:05.028Z,101161.34
2023-08-11T14:59:31.546Z,101163.00
2023-08-11T15:01:59.468Z,101172.78
2023-08-11T15:04:26.042Z,101171.53
2023-08-11T15:06:52.527Z,101169.09
2023-08-11T15:09:19.012Z,101164.19
2023-08-11T15:11:45.460Z,101163.00
2023-08-11T15:14:11.988Z,101158.09
2023-08-11T15:16:38.486Z,101149.88
2023-08-11T15:19:06.364Z,101146.75
2023-08-11T15:21:32.829Z,101139.78
2023-08-11T15:23:59.359Z,101145.91
2023-08-11T15:26:25.864Z,101150.38
2023-08-11T15:28:52.362Z,101138.59
2023-08-11T15:31:19.065Z,101140.63
2023-08-11T15:33:45.548Z,101145.38
2023-08-11T15:36:13.376Z,101139.78
2023-08-11T15:38:39.841Z,101132.91
2023-08-11T15:41:06.280Z,101123.09
2023-08-11T15:43:32.939Z,101127.56
2023-08-11T15:45:59.581Z,101126.78
2023-08-11T15:48:26.172Z,101125.50
2023-08-11T15:50:52.981Z,101115.72
2023-08-11T15:53:20.758Z,101120.25
2023-08-11T15:55:47.235Z,101126.72
2023-08-11T15:58:13.808Z,101116.19
2023-08-11T16:00:40.273Z,101117.81
2023-08-11T16:05:33.266Z,101116.59
2023-08-11T16:07:59.791Z,101105.22
2023-08-11T16:10:30.400Z,101108.84
2023-08-11T16:12:56.884Z,101113.66
2023-08-11T16:15:26.027Z,101115.38
2023-08-11T16:17:52.595Z,101113.72
2023-08-11T16:20:19.213Z,101104.31
2023-08-11T16:22:45.688Z,101106.38
2023-08-11T16:25:12.157Z,101115.31
2023-08-11T16:27:39.959Z,101115.78
2023-08-11T16:30:08.082Z,101115.72
2023-08-11T16:32:34.547Z,101108.84
2023-08-11T16:35:01.033Z,101112.94
2023-08-11T16:37:27.465Z,101108.06
2023-08-11T16:39:53.911Z,101107.19
2023-08-11T16:42:20.364Z,101116.19
2023-08-11T16:44:48.120Z,101102.72
2023-08-11T16:47:14.553Z,101108.84
2023-08-11T16:49:41.058Z,101099.09
2023-08-11T16:52:07.871Z,101108.81
2023-08-11T16:54:34.751Z,101105.56
2023-08-11T16:57:01.536Z,101100.25
2023-08-11T16:59:27.979Z,101103.13
2023-08-11T17:01:55.787Z,101103.97
2023-08-11T17:04:22.277Z,101095.75
2023-08-11T17:06:51.245Z,101097.81
2023-08-11T17:09:17.983Z,101098.22
2023-08-11T17:11:44.484Z,101099.03
2023-08-11T17:14:10.950Z,101098.19
2023-08-11T17:16:37.532Z,101101.09
2023-08-11T17:19:05.591Z,101095.38
2023-08-11T17:21:32.048Z,101098.88
2023-08-11T17:23:58.506Z,101094.09
2023-08-11T17:26:24.961Z,101093.22
2023-08-11T17:28:51.792Z,101095.75
2023-08-11T17:31:18.257Z,101093.75
2023-08-11T17:33:44.713Z,101088.31
2023-08-11T17:36:12.486Z,101090.69
2023-08-11T17:38:38.938Z,101091.09
2023-08-11T17:41:05.483Z,101096.03
2023-08-11T17:43:31.926Z,101098.13
2023-08-11T17:45:58.674Z,101100.56
2023-08-11T17:48:25.243Z,101096.47
2023-08-11T17:50:51.708Z,101092.38
2023-08-11T17:53:19.486Z,101100.16
2023-08-11T17:55:47.494Z,101104.19
2023-08-11T17:58:13.943Z,101105.44
2023-08-11T18:00:41.872Z,101102.00
2023-08-11T18:03:08.958Z,101105.34
2023-08-11T18:05:38.040Z,101106.16
2023-08-11T18:08:04.805Z,101104.94
2023-08-11T18:10:32.663Z,101099.16
2023-08-11T18:12:59.128Z,101104.44
2023-08-11T18:15:27.254Z,101102.09
2023-08-11T18:17:56.781Z,101099.50
2023-08-11T18:20:23.245Z,101104.00
2023-08-11T18:22:49.699Z,101097.13
2023-08-11T18:25:16.325Z,101095.03
2023-08-11T18:27:44.132Z,101099.59
2023-08-11T18:30:11.783Z,101098.03
2023-08-11T18:32:38.372Z,101107.63
2023-08-11T18:35:05.773Z,101105.84
2023-08-11T18:37:32.246Z,101104.63
2023-08-11T18:39:58.757Z,101101.59
2023-08-11T18:42:25.239Z,101102.78
2023-08-11T18:44:53.290Z,101100.38
2023-08-11T18:47:19.767Z,101102.81
2023-08-11T18:49:46.225Z,101094.16
2023-08-11T18:52:13.133Z,101097.94
2023-08-11T18:54:40.027Z,101099.13
2023-08-11T18:57:06.477Z,101104.00
2023-08-11T18:59:33.072Z,101104.75
2023-08-11T19:02:00.871Z,101115.38
2023-08-11T19:04:27.447Z,101107.91
2023-08-11T19:06:53.885Z,101114.25
2023-08-11T19:09:20.507Z,101111.59
2023-08-11T19:11:46.959Z,101111.72
2023-08-11T19:14:13.409Z,101106.16
2023-08-11T19:16:39.990Z,101117.38
2023-08-11T19:19:07.757Z,101105.44
2023-08-11T19:21:34.260Z,101106.50
2023-08-11T19:24:00.735Z,101102.03
2023-08-11T19:26:27.171Z,101103.59
2023-08-11T19:28:53.616Z,101104.50
2023-08-11T19:31:20.115Z,101106.50
2023-08-11T19:33:46.575Z,101102.91
2023-08-11T19:36:14.484Z,101105.25
2023-08-11T19:38:42.221Z,101098.06
2023-08-11T19:41:09.338Z,101099.97
2023-08-11T19:43:35.904Z,101090.88
2023-08-11T19:46:02.427Z,101095.44
2023-08-11T19:48:28.901Z,101101.63
2023-08-11T19:50:55.338Z,101093.09
2023-08-11T19:53:23.542Z,101095.13
2023-08-11T19:55:49.998Z,101089.75
2023-08-11T19:58:16.537Z,101089.13
2023-08-11T20:00:43.405Z,101094.22
2023-08-11T20:03:10.371Z,101094.63
2023-08-11T20:05:42.581Z,101089.41
2023-08-11T20:08:09.210Z,101085.25
2023-08-11T20:10:36.990Z,101086.81
2023-08-11T20:13:03.768Z,101084.72
2023-08-11T20:15:31.980Z,101088.22
2023-08-11T20:17:58.454Z,101084.66
2023-08-11T20:20:24.966Z,101076.94
2023-08-11T20:22:51.438Z,101085.38
2023-08-11T20:25:17.892Z,101085.44
2023-08-11T20:27:45.732Z,101082.19
2023-08-11T20:30:12.460Z,101079.66
2023-08-11T20:32:39.042Z,101082.16
2023-08-11T20:35:06.394Z,101081.16
2023-08-11T20:37:33.268Z,101082.22
2023-08-11T20:40:00.097Z,101080.38
2023-08-11T20:42:26.608Z,101080.84
2023-08-11T20:44:54.634Z,101073.25
2023-08-11T20:47:21.069Z,101080.44
2023-08-11T20:49:47.603Z,101074.06
2023-08-11T20:52:14.089Z,101074.31
2023-08-11T20:54:40.579Z,101068.25
2023-08-11T20:57:07.000Z,101070.94
2023-08-11T20:59:33.638Z,101072.16
2023-08-11T21:02:01.616Z,101066.47
2023-08-11T21:04:28.229Z,101064.47
2023-08-11T21:06:54.818Z,101072.41
2023-08-11T21:09:21.291Z,101069.94
2023-08-11T21:11:47.772Z,101066.78
2023-08-11T21:14:14.285Z,101068.59
2023-08-11T21:16:41.906Z,101076.09
2023-08-11T21:19:09.750Z,101070.94
2023-08-11T21:21:36.406Z,101072.25
2023-08-11T21:24:03.138Z,101066.00
2023-08-11T21:26:29.683Z,101068.47
2023-08-11T21:28:56.148Z,101071.44
2023-08-11T21:31:22.614Z,101074.91
2023-08-11T21:33:58.976Z,101071.81
2023-08-11T21:36:26.766Z,101061.75
2023-08-11T21:38:53.230Z,101062.84
2023-08-11T21:41:19.777Z,101067.13
2023-08-11T21:43:46.266Z,101069.06
2023-08-11T21:46:12.724Z,101064.69
2023-08-11T21:48:39.270Z,101058.97
2023-08-11T21:51:05.700Z,101067.13
2023-08-11T21:53:33.492Z,101056.38
2023-08-11T21:56:00.010Z,101050.47
2023-08-11T21:58:26.521Z,101048.69
2023-08-11T22:00:52.969Z,101035.53
2023-08-11T22:03:19.540Z,101040.88
2023-08-11T22:05:46.208Z,101039.38
2023-08-11T22:08:12.659Z,101037.97
2023-08-11T22:10:41.882Z,101033.22
2023-08-11T22:13:09.662Z,101039.78
2023-08-11T22:15:36.170Z,101027.19
2023-08-11T22:18:03.046Z,101038.97
2023-08-11T22:20:29.610Z,101028.47
2023-08-11T22:22:56.072Z,101036.81
2023-08-11T22:25:22.964Z,101030.22
2023-08-11T22:27:51.352Z,101034.53
2023-08-11T22:30:17.972Z,101036.84
2023-08-11T22:32:44.467Z,101029.09
2023-08-11T22:35:11.751Z,101039.06
2023-08-11T22:37:38.202Z,101029.59
2023-08-11T22:40:05.655Z,101032.47
2023-08-11T22:42:32.110Z,101030.75
2023-08-11T22:44:59.891Z,101038.47
2023-08-11T22:47:26.403Z,101033.25
2023-08-11T22:49:52.892Z,101033.84
2023-08-11T22:52:19.351Z,101025.56
2023-08-11T22:54:45.862Z,101024.38
2023-08-11T22:57:12.512Z,101027.31
2023-08-11T22:59:39.148Z,101022.56
2023-08-11T23:02:08.100Z,101021.75
2023-08-11T23:04:34.626Z,101019.31
2023-08-11T23:07:01.095Z,101012.91
2023-08-11T23:09:27.561Z,101015.69
2023-08-11T23:11:54.060Z,101015.53
2023-08-11T23:14:20.513Z,101012.19
2023-08-11T23:16:47.155Z,101021.16
2023-08-11T23:19:14.938Z,101017.97
2023-08-11T23:21:41.376Z,101006.13
2023-08-11T23:24:08.089Z,101016.25
2023-08-11T23:26:34.552Z,101013.66
2023-08-11T23:29:01.020Z,101017.06
2023-08-11T23:31:27.921Z,101011.72
2023-08-11T23:33:54.434Z,101010.75
2023-08-11T23:36:22.233Z,101018.72
2023-08-11T23:38:48.731Z,101016.84
2023-08-11T23:41:15.341Z,101004.44
2023-08-11T23:43:41.787Z,101005.19
2023-08-11T23:46:08.414Z,101001.69
2023-08-11T23:48:35.124Z,100997.28
2023-08-11T23:51:01.595Z,100995.81
2023-08-11T23:53:29.392Z,101000.84
2023-08-11T23:55:55.879Z,101007.72
2023-08-11T23:58:22.334Z,101008.88
